This is the latest recevied weather packets stored in our database for station/object M0IQF-13. If no packets are shown the sender has not sent any weather packets the latest 10 day(s).
| Time | Temp. | Humidity | Pressure | Rain* | Wind** | Luminosity | Snow |
|---|---|---|---|---|---|---|---|
| 1777447432 | 19.44° C | 55% | 1024.3 hPa | - | - | - | - |
| 1777446525 | 19.44° C | 59% | 1024.3 hPa | - | - | - | - |
| 1777445618 | 17.78° C | 67% | 1024.3 hPa | - | - | - | - |
| 1777444711 | 17.22° C | 69% | 1024.4 hPa | - | - | - | - |
| 1777443804 | 16.67° C | 77% | 1024.1 hPa | - | - | - | - |
| 1777442897 | 15.56° C | 85% | 1024 hPa | - | - | - | - |
| 1777441990 | 15° C | 85% | 1024 hPa | - | - | - | - |
| 1777441082 | 15° C | 90% | 1023.9 hPa | - | - | - | - |
| 1777440175 | 11.67° C | 100% | 1024.1 hPa | - | - | - | - |
| 1777439268 | 11.11° C | 100% | 1023.9 hPa | - | - | - | - |
| 1777438361 | 11.11° C | 100% | 1024 hPa | - | - | - | - |
| 1777437454 | 12.22° C | 100% | 1023.8 hPa | - | - | - | - |
| 1777436547 | 11.67° C | 100% | 1023.9 hPa | - | - | - | - |
| 1777435640 | 12.22° C | 97% | 1023.9 hPa | - | - | - | - |
| 1777434732 | 11.67° C | 100% | 1024 hPa | - | - | - | - |
| 1777433826 | 12.22° C | 98% | 1024 hPa | - | - | - | - |
| 1777432919 | 12.22° C | 100% | 1023.9 hPa | - | - | - | - |
| 1777429291 | 11.67° C | 98% | 1024.3 hPa | - | - | - | - |
| 1777414778 | 11.11° C | 81% | 1025.2 hPa | - | - | - | - |
| 1777413871 | 11.67° C | 75% | 1025.2 hPa | - | - | - | - |
| 1777410242 | 12.22° C | 50% | 1025 hPa | - | - | - | - |
| 1777397544 | 17.22° C | 33% | 1023.5 hPa | - | - | - | - |
| 1777390287 | 20.56° C | 40% | 1023.3 hPa | - | - | - | - |
| 1777389380 | 20° C | 39% | 1023.2 hPa | - | - | - | - |
| 1777388474 | 18.89° C | 42% | 1023.2 hPa | - | - | - | - |
* Rain since midnight (hover to see other rain measurements)
** Current wind speed in m/s (hover to see current wind gust speed)